createdAt,value
2023-04-17T00:00:17.032Z,8.35
2023-04-17T00:02:45.074Z,8.37
2023-04-17T00:05:11.954Z,8.40
2023-04-17T00:07:38.811Z,8.41
2023-04-17T00:10:07.818Z,8.39
2023-04-17T00:12:34.807Z,8.36
2023-04-17T00:15:01.459Z,8.36
2023-04-17T00:17:27.965Z,8.32
2023-04-17T00:19:54.528Z,8.32
2023-04-17T00:22:21.143Z,8.32
2023-04-17T00:24:47.638Z,8.27
2023-04-17T00:27:14.057Z,8.29
2023-04-17T00:29:40.605Z,8.28
2023-04-17T00:32:07.536Z,8.24
2023-04-17T00:34:33.973Z,8.18
2023-04-17T00:37:00.424Z,8.17
2023-04-17T00:39:27.190Z,8.17
2023-04-17T00:41:53.765Z,8.17
2023-04-17T00:44:20.890Z,8.14
2023-04-17T00:46:47.681Z,8.11
2023-04-17T00:49:14.160Z,8.08
2023-04-17T00:51:40.778Z,8.09
2023-04-17T00:54:07.807Z,8.08
2023-04-17T00:56:34.329Z,8.05
2023-04-17T00:59:03.866Z,8.05
2023-04-17T01:01:30.439Z,8.01
2023-04-17T01:03:59.794Z,8.04
2023-04-17T01:06:27.038Z,8.02
2023-04-17T01:08:53.957Z,7.98
2023-04-17T01:11:20.429Z,7.98
2023-04-17T01:13:51.365Z,7.94
2023-04-17T01:16:19.042Z,7.94
2023-04-17T01:18:48.178Z,7.94
2023-04-17T01:21:15.176Z,7.91
2023-04-17T01:23:52.762Z,7.92
2023-04-17T01:26:22.863Z,7.87
2023-04-17T01:28:54.194Z,7.88
2023-04-17T01:31:21.215Z,7.86
2023-04-17T01:33:48.686Z,7.87
2023-04-17T01:36:15.809Z,7.85
2023-04-17T01:38:42.460Z,7.84
2023-04-17T01:41:10.119Z,7.83
2023-04-17T01:43:41.972Z,7.85
2023-04-17T01:46:09.161Z,7.85
2023-04-17T01:48:36.577Z,7.87
2023-04-17T01:51:03.745Z,7.88
2023-04-17T01:53:31.236Z,7.88
2023-04-17T01:55:58.509Z,7.84
2023-04-17T01:58:24.940Z,7.86
2023-04-17T02:00:51.974Z,7.86
2023-04-17T02:03:19.069Z,7.89
2023-04-17T02:05:47.245Z,7.84
2023-04-17T02:08:14.604Z,7.85
2023-04-17T02:10:42.152Z,7.84
2023-04-17T02:13:09.189Z,7.80
2023-04-17T02:15:36.813Z,7.79
2023-04-17T02:18:06.092Z,7.79
2023-04-17T02:20:35.956Z,7.81
2023-04-17T02:23:03.896Z,7.81
2023-04-17T02:25:31.395Z,7.81
2023-04-17T02:27:57.956Z,7.81
2023-04-17T02:30:25.583Z,7.86
2023-04-17T02:32:55.146Z,7.86
2023-04-17T02:35:24.839Z,7.83
2023-04-17T02:37:51.759Z,7.85
2023-04-17T02:40:19.253Z,7.84
2023-04-17T02:42:48.838Z,7.85
2023-04-17T02:45:15.468Z,7.85
2023-04-17T02:47:42.885Z,7.82
2023-04-17T02:50:10.731Z,7.79
2023-04-17T02:52:46.143Z,7.81
2023-04-17T02:55:12.610Z,7.79
2023-04-17T02:57:40.838Z,7.76
2023-04-17T03:00:14.725Z,7.76
2023-04-17T03:02:41.509Z,7.76
2023-04-17T03:05:09.161Z,7.74
2023-04-17T03:07:35.798Z,7.69
2023-04-17T03:10:02.736Z,7.69
2023-04-17T03:12:30.422Z,7.71
2023-04-17T03:14:56.843Z,7.71
2023-04-17T03:17:23.384Z,7.72
2023-04-17T03:19:49.942Z,7.74
2023-04-17T03:22:16.458Z,7.71
2023-04-17T03:24:43.024Z,7.69
2023-04-17T03:27:09.987Z,7.72
2023-04-17T03:29:40.713Z,7.69
2023-04-17T03:32:09.599Z,7.70
2023-04-17T03:34:36.105Z,7.71
2023-04-17T03:37:03.675Z,7.69
2023-04-17T03:39:31.110Z,7.68
2023-04-17T03:41:57.591Z,7.67
2023-04-17T03:44:24.080Z,7.69
2023-04-17T03:46:50.496Z,7.73
2023-04-17T03:49:17.260Z,7.76
2023-04-17T03:51:43.963Z,7.73
2023-04-17T03:54:16.478Z,7.70
2023-04-17T03:56:45.265Z,7.73
2023-04-17T03:59:12.586Z,7.73
2023-04-17T04:01:43.775Z,7.71
2023-04-17T04:04:18.181Z,7.67
2023-04-17T04:06:44.948Z,7.67
2023-04-17T04:09:14.673Z,7.65
2023-04-17T04:11:42.188Z,7.64
2023-04-17T04:14:08.891Z,7.65
2023-04-17T04:16:35.522Z,7.65
2023-04-17T04:19:11.761Z,7.67
2023-04-17T04:21:38.755Z,7.67
2023-04-17T04:24:08.580Z,7.64
2023-04-17T04:26:36.879Z,7.63
2023-04-17T04:29:03.705Z,7.59
2023-04-17T04:31:39.887Z,7.57
2023-04-17T04:34:08.914Z,7.56
2023-04-17T04:36:41.778Z,7.53
2023-04-17T04:39:21.573Z,7.55
2023-04-17T04:41:50.750Z,7.54
2023-04-17T04:44:19.874Z,7.55
2023-04-17T04:46:47.747Z,7.60
2023-04-17T04:49:15.220Z,7.63
2023-04-17T04:51:41.856Z,7.60
2023-04-17T04:54:08.914Z,7.57
2023-04-17T04:56:44.957Z,7.55
2023-04-17T04:59:13.438Z,7.56
2023-04-17T05:01:45.363Z,7.56
2023-04-17T05:04:14.131Z,7.56
2023-04-17T05:06:41.517Z,7.57
2023-04-17T05:09:08.451Z,7.57
2023-04-17T05:11:35.045Z,7.56
2023-04-17T05:14:01.663Z,7.59
2023-04-17T05:16:31.222Z,7.61
2023-04-17T05:18:58.456Z,7.61
2023-04-17T05:21:50.958Z,7.61
2023-04-17T05:24:19.893Z,7.63
2023-04-17T05:26:48.636Z,7.63
2023-04-17T05:29:15.364Z,7.60
2023-04-17T05:31:41.944Z,7.56
2023-04-17T05:34:20.041Z,7.57
2023-04-17T05:36:46.583Z,7.57
2023-04-17T05:39:13.993Z,7.58
2023-04-17T05:41:40.580Z,7.61
2023-04-17T05:44:07.253Z,7.62
2023-04-17T05:46:33.671Z,7.62
2023-04-17T05:49:00.277Z,7.63
2023-04-17T05:51:26.989Z,7.67
2023-04-17T05:53:53.682Z,7.73
2023-04-17T05:56:20.991Z,7.71
2023-04-17T05:58:48.484Z,7.70
2023-04-17T06:01:17.326Z,7.72
2023-04-17T06:03:44.010Z,7.74
2023-04-17T06:06:16.451Z,7.74
2023-04-17T06:08:42.860Z,7.70
2023-04-17T06:11:09.723Z,7.74
2023-04-17T06:13:36.861Z,7.77
2023-04-17T06:16:04.180Z,7.78
2023-04-17T06:18:30.821Z,7.73
2023-04-17T06:20:57.429Z,7.71
2023-04-17T06:23:24.292Z,7.75
2023-04-17T06:25:50.865Z,7.79
2023-04-17T06:28:18.450Z,7.80
2023-04-17T06:30:45.429Z,7.83
2023-04-17T06:33:11.868Z,7.81
2023-04-17T06:35:39.199Z,7.79
2023-04-17T06:38:23.632Z,7.78
2023-04-17T06:40:52.484Z,7.77
2023-04-17T06:43:19.288Z,7.65
2023-04-17T06:45:45.724Z,7.60
2023-04-17T06:48:12.541Z,7.58
2023-04-17T06:50:38.989Z,7.58
2023-04-17T06:53:06.402Z,7.59
2023-04-17T06:55:32.806Z,7.61
2023-04-17T06:57:59.215Z,7.66
2023-04-17T07:00:26.031Z,7.70
2023-04-17T07:02:52.503Z,7.78
2023-04-17T07:05:19.982Z,7.90
2023-04-17T07:07:46.460Z,8.08
2023-04-17T07:10:15.682Z,8.30
2023-04-17T07:12:42.229Z,8.37
2023-04-17T07:15:09.696Z,8.39
2023-04-17T07:17:37.928Z,8.49
2023-04-17T07:20:07.700Z,8.43
2023-04-17T07:22:37.044Z,8.40
2023-04-17T07:25:04.565Z,8.40
2023-04-17T07:27:31.075Z,8.41
2023-04-17T07:29:57.687Z,8.43
2023-04-17T07:32:24.641Z,8.39
2023-04-17T07:34:51.145Z,8.41
2023-04-17T07:37:17.814Z,8.49
2023-04-17T07:39:45.239Z,8.68
2023-04-17T07:42:11.697Z,8.81
2023-04-17T07:44:39.023Z,8.72
2023-04-17T07:47:05.553Z,8.59
2023-04-17T07:49:32.339Z,8.54
2023-04-17T07:51:58.829Z,8.51
2023-04-17T07:54:25.553Z,8.47
2023-04-17T07:56:52.034Z,8.52
2023-04-17T07:59:18.500Z,8.46
2023-04-17T08:01:45.050Z,8.47
2023-04-17T08:04:11.736Z,8.63
2023-04-17T08:06:39.036Z,8.95
2023-04-17T08:09:05.502Z,9.09
2023-04-17T08:11:35.689Z,9.15
2023-04-17T08:14:06.504Z,9.25
2023-04-17T08:16:33.445Z,9.32
2023-04-17T08:18:59.938Z,9.26
2023-04-17T08:21:26.692Z,9.26
2023-04-17T08:23:53.097Z,9.23
2023-04-17T08:26:20.523Z,9.27
2023-04-17T08:28:47.074Z,9.34
2023-04-17T08:31:13.944Z,9.44
2023-04-17T08:33:40.644Z,9.46
2023-04-17T08:36:09.659Z,9.51
2023-04-17T08:38:36.514Z,9.69
2023-04-17T08:41:06.074Z,9.84
2023-04-17T08:43:35.320Z,10.02
2023-04-17T08:46:03.003Z,10.19
2023-04-17T08:48:30.519Z,10.23
2023-04-17T08:50:57.036Z,10.20
2023-04-17T08:53:23.498Z,10.50
2023-04-17T08:55:50.075Z,11.16
2023-04-17T08:58:17.784Z,11.91
2023-04-17T09:00:45.229Z,11.99
2023-04-17T09:03:13.823Z,12.37
2023-04-17T09:05:48.466Z,12.50
2023-04-17T09:08:17.114Z,12.83
2023-04-17T09:10:45.894Z,13.61
2023-04-17T09:13:15.685Z,14.54
2023-04-17T09:15:44.042Z,15.88
2023-04-17T09:18:33.012Z,16.51
2023-04-17T09:21:00.879Z,15.70
2023-04-17T09:23:28.894Z,15.02
2023-04-17T09:26:13.596Z,14.25
2023-04-17T09:28:40.780Z,13.87
2023-04-17T09:31:27.588Z,13.24
2023-04-17T09:33:58.246Z,12.97
2023-04-17T09:36:31.585Z,12.86
2023-04-17T09:39:02.303Z,12.56
2023-04-17T09:41:31.614Z,12.53
2023-04-17T09:44:05.235Z,12.41
2023-04-17T09:46:31.659Z,12.68
2023-04-17T09:49:18.672Z,13.01
2023-04-17T09:51:46.368Z,13.25
2023-04-17T09:54:14.953Z,13.50
2023-04-17T09:56:41.521Z,13.39
2023-04-17T09:59:08.802Z,13.25
2023-04-17T10:01:37.802Z,13.25
2023-04-17T10:04:05.517Z,13.36
2023-04-17T10:06:33.007Z,13.26
2023-04-17T10:08:59.989Z,13.20
2023-04-17T10:11:34.155Z,13.29
2023-04-17T10:14:13.597Z,13.32
2023-04-17T10:16:44.968Z,13.64
2023-04-17T10:19:34.127Z,13.79
2023-04-17T10:22:15.918Z,14.30
2023-04-17T10:24:43.048Z,14.75
2023-04-17T10:27:25.005Z,15.66
2023-04-17T10:29:58.418Z,15.94
2023-04-17T10:32:27.715Z,16.21
2023-04-17T10:35:00.834Z,16.40
2023-04-17T10:37:47.355Z,17.47
2023-04-17T10:40:30.664Z,18.31
2023-04-17T10:43:22.572Z,19.27
2023-04-17T10:45:58.560Z,18.76
2023-04-17T10:48:47.724Z,19.53
2023-04-17T10:51:20.410Z,19.93
2023-04-17T10:54:00.187Z,20.74
2023-04-17T10:56:27.630Z,20.90
2023-04-17T10:59:02.074Z,19.85
2023-04-17T11:01:38.009Z,19.44
2023-04-17T11:04:05.194Z,19.99
2023-04-17T11:06:33.097Z,20.84
2023-04-17T11:09:00.490Z,19.65
2023-04-17T11:11:42.979Z,19.18
2023-04-17T11:14:14.388Z,19.76
2023-04-17T11:16:43.243Z,19.07
2023-04-17T11:19:10.594Z,18.80
2023-04-17T11:21:44.776Z,18.59
2023-04-17T11:24:12.051Z,18.99
2023-04-17T11:26:46.154Z,19.23
2023-04-17T11:29:20.409Z,19.35
2023-04-17T11:31:48.327Z,19.34
2023-04-17T11:34:16.193Z,19.38
2023-04-17T11:36:57.135Z,19.23
2023-04-17T11:39:25.538Z,19.04
2023-04-17T11:41:52.674Z,19.27
2023-04-17T11:44:20.563Z,19.33
2023-04-17T11:46:54.887Z,19.40
2023-04-17T11:49:31.724Z,19.62
2023-04-17T11:52:01.983Z,20.49
2023-04-17T11:54:29.402Z,20.18
2023-04-17T11:57:01.307Z,19.26
2023-04-17T11:59:38.787Z,19.80
2023-04-17T12:02:07.364Z,19.37
2023-04-17T12:04:35.367Z,19.39
2023-04-17T12:07:07.240Z,18.65
2023-04-17T12:09:35.499Z,18.15
2023-04-17T12:12:05.573Z,18.17
2023-04-17T12:14:32.612Z,18.36
2023-04-17T12:16:59.375Z,18.86
2023-04-17T12:19:27.211Z,18.82
2023-04-17T12:21:54.403Z,18.15
2023-04-17T12:24:24.036Z,17.84
2023-04-17T12:26:52.354Z,17.59
2023-04-17T12:29:26.517Z,17.49
2023-04-17T12:31:59.288Z,17.03
2023-04-17T12:34:27.235Z,16.98
2023-04-17T12:36:54.299Z,17.19
2023-04-17T12:39:20.770Z,17.25
2023-04-17T12:41:47.276Z,18.09
2023-04-17T12:44:14.333Z,18.44
2023-04-17T12:46:41.120Z,17.91
2023-04-17T12:49:07.656Z,17.18
2023-04-17T12:51:37.591Z,17.57
2023-04-17T12:54:04.346Z,17.51
2023-04-17T12:56:30.835Z,17.47
2023-04-17T12:58:57.277Z,17.11
2023-04-17T13:01:25.156Z,17.55
2023-04-17T13:03:51.833Z,17.69
2023-04-17T13:06:18.544Z,17.01
2023-04-17T13:08:45.012Z,16.63
2023-04-17T13:11:11.473Z,16.33
2023-04-17T13:13:37.875Z,16.10
2023-04-17T13:16:04.814Z,16.16
2023-04-17T13:18:31.310Z,16.38
2023-04-17T13:20:57.809Z,16.44
2023-04-17T13:23:24.200Z,16.51
2023-04-17T13:25:50.652Z,16.83
2023-04-17T13:28:17.148Z,17.00
2023-04-17T13:30:43.659Z,17.32
2023-04-17T13:33:10.261Z,17.73
2023-04-17T13:35:36.661Z,17.87
2023-04-17T13:38:04.537Z,17.59
2023-04-17T13:40:31.193Z,17.38
2023-04-17T13:42:58.354Z,17.01
2023-04-17T13:45:24.869Z,17.03
2023-04-17T13:47:51.457Z,17.32
2023-04-17T13:50:17.940Z,17.72
2023-04-17T13:52:44.447Z,17.54
2023-04-17T13:55:14.640Z,17.29
2023-04-17T13:57:41.577Z,17.45
2023-04-17T14:00:08.701Z,17.07
2023-04-17T14:02:35.374Z,16.76
2023-04-17T14:05:02.219Z,16.73
2023-04-17T14:07:29.976Z,16.91
2023-04-17T14:09:56.455Z,17.07
2023-04-17T14:12:23.602Z,17.07
2023-04-17T14:14:50.212Z,16.84
2023-04-17T14:17:16.726Z,16.50
2023-04-17T14:19:43.185Z,16.19
2023-04-17T14:22:09.653Z,16.10
2023-04-17T14:24:36.068Z,16.07
2023-04-17T14:27:02.518Z,16.02
2023-04-17T14:29:28.990Z,16.04
2023-04-17T14:31:55.526Z,16.10
2023-04-17T14:34:22.136Z,16.29
2023-04-17T14:36:48.757Z,16.37
2023-04-17T14:39:15.613Z,16.77
2023-04-17T14:41:42.296Z,17.06
2023-04-17T14:44:08.904Z,17.36
2023-04-17T14:46:35.649Z,17.66
2023-04-17T14:49:02.340Z,17.84
2023-04-17T14:51:30.587Z,17.81
2023-04-17T14:53:57.473Z,17.65
2023-04-17T14:56:24.170Z,17.42
2023-04-17T14:58:50.702Z,16.91
2023-04-17T15:01:17.261Z,16.62
2023-04-17T15:03:46.768Z,16.39
2023-04-17T15:06:14.984Z,16.29
2023-04-17T15:08:41.713Z,16.05
2023-04-17T15:11:08.884Z,15.93
2023-04-17T15:13:35.927Z,15.96
2023-04-17T15:16:02.590Z,15.95
2023-04-17T15:18:29.154Z,15.97
2023-04-17T15:20:55.909Z,15.98
2023-04-17T15:23:22.849Z,15.80
2023-04-17T15:25:49.470Z,15.67
2023-04-17T15:28:15.967Z,15.59
2023-04-17T15:30:42.670Z,15.56
2023-04-17T15:33:10.240Z,15.44
2023-04-17T15:35:37.317Z,15.31
2023-04-17T15:38:05.120Z,15.46
2023-04-17T15:40:31.619Z,15.76
2023-04-17T15:42:58.100Z,15.92
2023-04-17T15:45:27.137Z,16.08
2023-04-17T15:47:54.560Z,16.17
2023-04-17T15:50:21.796Z,16.16
2023-04-17T15:52:49.295Z,16.27
2023-04-17T15:55:15.843Z,16.29
2023-04-17T15:57:47.084Z,16.40
2023-04-17T16:00:14.192Z,16.44
2023-04-17T16:02:40.751Z,16.63
2023-04-17T16:05:07.808Z,16.74
2023-04-17T16:07:34.308Z,16.76
2023-04-17T16:10:00.708Z,16.60
2023-04-17T16:12:28.183Z,16.60
2023-04-17T16:14:54.778Z,16.61
2023-04-17T16:17:21.306Z,16.50
2023-04-17T16:19:50.380Z,16.16
2023-04-17T16:22:18.417Z,15.98
2023-04-17T16:24:44.863Z,15.74
2023-04-17T16:27:11.429Z,15.65
2023-04-17T16:29:37.919Z,15.52
2023-04-17T16:32:04.476Z,15.41
2023-04-17T16:34:31.017Z,15.54
2023-04-17T16:36:57.426Z,15.74
2023-04-17T16:39:24.028Z,15.73
2023-04-17T16:41:52.194Z,15.67
2023-04-17T16:44:18.675Z,15.69
2023-04-17T16:47:03.140Z,15.61
2023-04-17T16:49:31.639Z,15.59
2023-04-17T16:51:58.996Z,15.54
2023-04-17T16:54:26.111Z,15.42
2023-04-17T16:56:52.597Z,15.23
2023-04-17T16:59:19.153Z,15.17
2023-04-17T17:01:47.112Z,15.57
2023-04-17T17:04:13.773Z,15.53
2023-04-17T17:06:40.352Z,15.15
2023-04-17T17:09:06.777Z,14.93
2023-04-17T17:11:33.362Z,14.86
2023-04-17T17:13:59.817Z,14.80
2023-04-17T17:16:26.340Z,14.76
2023-04-17T17:18:52.836Z,14.68
2023-04-17T17:21:19.301Z,14.62
2023-04-17T17:23:45.849Z,14.61
2023-04-17T17:26:12.520Z,14.53
2023-04-17T17:28:39.186Z,14.45
2023-04-17T17:31:09.566Z,14.37
2023-04-17T17:33:36.511Z,14.30
2023-04-17T17:36:03.213Z,14.27
2023-04-17T17:38:30.760Z,14.28
2023-04-17T17:40:57.476Z,14.32
2023-04-17T17:43:24.250Z,14.33
2023-04-17T17:45:50.988Z,14.29
2023-04-17T17:48:18.217Z,14.22
2023-04-17T17:50:44.822Z,14.11
2023-04-17T17:53:12.492Z,13.99
2023-04-17T17:55:39.889Z,13.95
2023-04-17T17:58:08.204Z,13.89
2023-04-17T18:00:35.420Z,13.85
2023-04-17T18:03:02.136Z,13.80
2023-04-17T18:05:28.767Z,13.76
2023-04-17T18:07:55.430Z,13.71
2023-04-17T18:10:21.902Z,13.61
2023-04-17T18:12:49.147Z,13.51
2023-04-17T18:15:15.789Z,13.38
2023-04-17T18:17:42.698Z,13.26
2023-04-17T18:20:09.723Z,13.14
2023-04-17T18:22:37.958Z,13.05
2023-04-17T18:25:06.214Z,12.95
2023-04-17T18:27:32.878Z,12.87
2023-04-17T18:29:59.315Z,12.78
2023-04-17T18:32:25.895Z,12.66
2023-04-17T18:34:52.391Z,12.57
2023-04-17T18:37:18.868Z,12.46
2023-04-17T18:39:45.413Z,12.37
2023-04-17T18:42:11.980Z,12.28
2023-04-17T18:44:38.476Z,12.22
2023-04-17T18:47:05.255Z,12.16
2023-04-17T18:49:31.738Z,12.05
2023-04-17T18:51:58.324Z,11.96
2023-04-17T18:54:24.837Z,11.92
2023-04-17T18:56:51.393Z,11.84
2023-04-17T18:59:19.896Z,11.75
2023-04-17T19:01:46.539Z,11.68
2023-04-17T19:04:13.401Z,11.63
2023-04-17T19:06:40.184Z,11.58
2023-04-17T19:09:06.729Z,11.52
2023-04-17T19:11:33.524Z,11.46
2023-04-17T19:14:00.107Z,11.40
2023-04-17T19:16:26.802Z,11.38
2023-04-17T19:18:53.369Z,11.32
2023-04-17T19:21:19.770Z,11.26
2023-04-17T19:23:47.752Z,11.22
2023-04-17T19:26:15.687Z,11.21
2023-04-17T19:28:42.273Z,11.13
2023-04-17T19:31:09.267Z,11.12
2023-04-17T19:33:35.933Z,11.06
2023-04-17T19:36:05.016Z,11.01
2023-04-17T19:38:34.191Z,11.00
2023-04-17T19:41:14.672Z,10.98
2023-04-17T19:43:42.450Z,10.93
2023-04-17T19:46:09.322Z,10.89
2023-04-17T19:48:36.758Z,10.87
2023-04-17T19:51:07.690Z,10.82
2023-04-17T19:53:36.239Z,10.76
2023-04-17T19:56:05.287Z,10.72
2023-04-17T19:58:33.122Z,10.67
2023-04-17T20:01:00.958Z,10.65
2023-04-17T20:03:28.678Z,10.63
2023-04-17T20:05:57.210Z,10.57
2023-04-17T20:08:24.386Z,10.53
2023-04-17T20:10:51.006Z,10.47
2023-04-17T20:13:17.532Z,10.42
2023-04-17T20:15:44.162Z,10.40
2023-04-17T20:18:11.256Z,10.36
2023-04-17T20:20:38.799Z,10.37
2023-04-17T20:23:05.562Z,10.34
2023-04-17T20:25:32.086Z,10.34
2023-04-17T20:27:58.588Z,10.29
2023-04-17T20:30:25.416Z,10.25
2023-04-17T20:32:52.443Z,10.26
2023-04-17T20:35:20.863Z,10.19
2023-04-17T20:37:47.396Z,10.09
2023-04-17T20:40:14.281Z,10.05
2023-04-17T20:42:42.053Z,10.07
2023-04-17T20:45:09.966Z,10.03
2023-04-17T20:47:37.708Z,9.99
2023-04-17T20:50:05.297Z,9.93
2023-04-17T20:52:32.952Z,9.88
2023-04-17T20:55:00.894Z,9.82
2023-04-17T20:57:28.548Z,9.76
2023-04-17T20:59:55.374Z,9.73
2023-04-17T21:02:22.035Z,9.65
2023-04-17T21:04:49.503Z,9.63
2023-04-17T21:07:16.498Z,9.57
2023-04-17T21:09:43.000Z,9.51
2023-04-17T21:12:09.465Z,9.49
2023-04-17T21:14:36.568Z,9.45
2023-04-17T21:17:03.101Z,9.38
2023-04-17T21:19:32.198Z,9.33
2023-04-17T21:21:58.648Z,9.32
2023-04-17T21:24:25.361Z,9.30
2023-04-17T21:26:54.013Z,9.27
2023-04-17T21:29:20.552Z,9.23
2023-04-17T21:31:47.000Z,9.18
2023-04-17T21:34:13.855Z,9.18
2023-04-17T21:36:40.621Z,9.19
2023-04-17T21:39:07.256Z,9.15
2023-04-17T21:41:33.817Z,9.10
2023-04-17T21:44:02.392Z,9.06
2023-04-17T21:46:29.232Z,9.05
2023-04-17T21:48:55.948Z,9.00
2023-04-17T21:51:23.148Z,8.95
2023-04-17T21:53:49.603Z,8.92
2023-04-17T21:56:16.037Z,8.89
2023-04-17T21:58:42.545Z,8.83
2023-04-17T22:01:10.136Z,8.77
2023-04-17T22:03:36.637Z,8.75
2023-04-17T22:06:03.669Z,8.72
2023-04-17T22:08:30.279Z,8.68
2023-04-17T22:10:56.739Z,8.67
2023-04-17T22:13:23.154Z,8.67
2023-04-17T22:15:49.632Z,8.67
2023-04-17T22:18:17.524Z,8.64
2023-04-17T22:21:02.450Z,8.66
2023-04-17T22:23:30.578Z,8.63
2023-04-17T22:27:12.377Z,8.56
2023-04-17T22:30:35.434Z,8.54
2023-04-17T22:33:39.462Z,8.50
2023-04-17T22:36:43.260Z,8.46
2023-04-17T22:40:05.885Z,8.46
2023-04-17T22:43:28.483Z,8.43
2023-04-17T22:46:13.959Z,8.38
2023-04-17T22:49:19.635Z,8.40
2023-04-17T22:51:47.162Z,8.38
2023-04-17T22:55:10.264Z,8.36
2023-04-17T22:57:55.370Z,8.32
2023-04-17T23:00:40.687Z,8.27
2023-04-17T23:03:25.528Z,8.22
2023-04-17T23:05:55.130Z,8.18
2023-04-17T23:08:22.613Z,8.17
2023-04-17T23:10:58.698Z,8.14
2023-04-17T23:13:26.668Z,8.14
2023-04-17T23:15:53.894Z,8.12
2023-04-17T23:18:20.364Z,8.09
2023-04-17T23:20:46.879Z,8.02
2023-04-17T23:23:13.375Z,7.98
2023-04-17T23:25:39.791Z,7.92
2023-04-17T23:28:06.270Z,7.86
2023-04-17T23:30:32.675Z,7.84
2023-04-17T23:32:59.125Z,7.79
2023-04-17T23:35:25.774Z,7.73
2023-04-17T23:37:52.259Z,7.70
2023-04-17T23:40:18.659Z,7.66
2023-04-17T23:42:45.802Z,7.67
2023-04-17T23:45:12.230Z,7.62
2023-04-17T23:47:38.676Z,7.60
2023-04-17T23:50:05.481Z,7.56
2023-04-17T23:52:32.528Z,7.54
2023-04-17T23:54:58.940Z,7.53
2023-04-17T23:57:25.415Z,7.56
2023-04-17T23:59:51.879Z,7.56
